Time;durP1;ratioP1;P1;durP2;ratioP2;P2;SDS_P1;SDS_P2;PMS_P1;PMS_P2;Temp;Humidity;BMP_temperature;BMP_pressure;BME280_temperature;BME280_humidity;BME280_pressure;Samples;Min_cycle;Max_cycle;Signal;HPM_P1;HPM_P2
2022/12/29 00:02:24;;;;;;;2.17;1.60;;;;;;;;;;5036208;28;20222;-92
2022/12/29 00:05:01;;;;;;;1.07;1.00;;;;;;;;;;5035072;28;20279;-91
2022/12/29 00:07:38;;;;;;;1.67;1.53;;;;;;;;;;5035893;28;20204;-92
2022/12/29 00:16:31;;;;;;;1.07;1.07;;;;;;;;;;5037428;28;20569;-92
2022/12/29 00:19:03;;;;;;;3.23;1.30;;;;;;;;;;5036099;28;20314;-91
2022/12/29 00:35:59;;;;;;;2.10;1.33;;;;;;;;;;5036673;28;20263;-90
2022/12/29 00:44:12;;;;;;;1.13;1.07;;;;;;;;;;5038495;28;20195;-93
2022/12/29 00:46:46;;;;;;;1.60;1.50;;;;;;;;;;5040304;28;20196;-93
2022/12/29 00:49:36;;;;;;;3.27;3.10;;;;;;;;;;5040169;28;20585;-92
2022/12/29 00:52:08;;;;;;;4.53;2.53;;;;;;;;;;5040060;28;20234;-91
2022/12/29 00:57:37;;;;;;;1.07;1.07;;;;;;;;;;5037055;28;20243;-92
2022/12/29 01:02:57;;;;;;;2.53;1.40;;;;;;;;;;5037899;28;20677;-91
2022/12/29 01:05:28;;;;;;;4.17;2.87;;;;;;;;;;5039495;28;20235;-92
2022/12/29 01:08:10;;;;;;;1.23;1.23;;;;;;;;;;5057825;28;20225;-92
2022/12/29 01:10:37;;;;;;;2.10;2.00;;;;;;;;;;5055227;28;20224;-91
2022/12/29 01:13:15;;;;;;;2.70;2.60;;;;;;;;;;5041830;28;20295;-92
2022/12/29 01:15:53;;;;;;;1.97;1.77;;;;;;;;;;5045184;28;20196;-92
2022/12/29 01:21:22;;;;;;;1.77;1.67;;;;;;;;;;5034679;28;20211;-92
2022/12/29 01:24:17;;;;;;;2.03;1.93;;;;;;;;;;5055194;28;20180;-91
2022/12/29 01:27:00;;;;;;;0.87;0.87;;;;;;;;;;5040147;28;20204;-91
2022/12/29 01:29:38;;;;;;;2.30;2.30;;;;;;;;;;5037695;28;20346;-91
2022/12/29 01:32:19;;;;;;;1.13;1.13;;;;;;;;;;5038562;28;20199;-91
2022/12/29 01:34:57;;;;;;;3.60;3.30;;;;;;;;;;5043116;28;20219;-93
2022/12/29 01:40:08;;;;;;;2.67;1.67;;;;;;;;;;5044698;28;20258;-93
2022/12/29 01:42:37;;;;;;;1.23;1.13;;;;;;;;;;5039455;28;20291;-92
2022/12/29 01:45:21;;;;;;;2.17;1.73;;;;;;;;;;5038749;28;20199;-92
2022/12/29 01:51:04;;;;;;;4.43;2.73;;;;;;;;;;5037820;28;20208;-92
2022/12/29 01:53:45;;;;;;;2.90;2.13;;;;;;;;;;5040532;28;20580;-92
2022/12/29 01:56:33;;;;;;;2.80;2.47;;;;;;;;;;5039950;28;20199;-91
2022/12/29 01:59:10;;;;;;;1.67;1.67;;;;;;;;;;5039477;28;20322;-93
2022/12/29 02:01:42;;;;;;;2.90;1.43;;;;;;;;;;5040507;28;20677;-91
2022/12/29 02:04:16;;;;;;;1.53;1.27;;;;;;;;;;5041730;28;20254;-93
2022/12/29 02:07:04;;;;;;;2.00;1.90;;;;;;;;;;5041743;28;20200;-92
2022/12/29 02:09:37;;;;;;;3.73;2.07;;;;;;;;;;5050285;28;20327;-91
2022/12/29 02:12:16;;;;;;;2.97;1.60;;;;;;;;;;5056007;28;20196;-87
2022/12/29 02:14:48;;;;;;;8.80;2.10;;;;;;;;;;5057738;28;20204;-89
2022/12/29 02:17:25;;;;;;;1.23;1.23;;;;;;;;;;5045928;28;20196;-90
2022/12/29 02:20:14;;;;;;;7.43;2.03;;;;;;;;;;5048753;28;20227;-93
2022/12/29 02:23:11;;;;;;;3.90;3.67;;;;;;;;;;5047503;28;20239;-90
2022/12/29 02:29:04;;;;;;;0.80;0.80;;;;;;;;;;5048696;28;20212;-92
2022/12/29 02:31:42;;;;;;;0.43;0.43;;;;;;;;;;4994617;28;20689;-91
2022/12/29 02:34:17;;;;;;;1.30;1.20;;;;;;;;;;5039406;28;20188;-90
2022/12/29 02:36:58;;;;;;;0.93;0.53;;;;;;;;;;5040990;28;20206;-89
2022/12/29 02:39:41;;;;;;;1.23;1.23;;;;;;;;;;5042194;28;20322;-90
2022/12/29 02:42:15;;;;;;;1.17;1.17;;;;;;;;;;5042450;28;20196;-92
2022/12/29 02:44:49;;;;;;;3.03;1.00;;;;;;;;;;5041482;28;20203;-91
2022/12/29 02:47:41;;;;;;;0.73;0.40;;;;;;;;;;5043751;28;20199;-90
2022/12/29 02:50:15;;;;;;;1.07;1.07;;;;;;;;;;5042567;28;20208;-91
2022/12/29 02:52:55;;;;;;;1.77;1.67;;;;;;;;;;5038579;28;20203;-92
2022/12/29 02:55:27;;;;;;;0.90;0.90;;;;;;;;;;5046770;28;20378;-93
2022/12/29 02:58:17;;;;;;;2.53;1.23;;;;;;;;;;5055894;28;20231;-93
2022/12/29 03:00:55;;;;;;;3.03;2.77;;;;;;;;;;5056587;28;20192;-90
2022/12/29 03:03:39;;;;;;;0.80;0.80;;;;;;;;;;5056879;28;20201;-92
2022/12/29 03:06:18;;;;;;;1.23;1.03;;;;;;;;;;5056690;28;20178;-91
2022/12/29 03:08:54;;;;;;;2.43;2.33;;;;;;;;;;5056436;28;20259;-89
2022/12/29 03:17:30;;;;;;;3.03;1.57;;;;;;;;;;5057045;28;20298;-91
2022/12/29 03:20:04;;;;;;;8.97;2.23;;;;;;;;;;5057177;28;20235;-90
2022/12/29 03:22:36;;;;;;;5.30;1.73;;;;;;;;;;5057039;28;20183;-90
2022/12/29 03:25:06;;;;;;;1.10;1.10;;;;;;;;;;5056010;28;20207;-91
2022/12/29 03:27:37;;;;;;;2.20;2.10;;;;;;;;;;5057138;28;20200;-93
2022/12/29 03:30:13;;;;;;;1.07;1.00;;;;;;;;;;5056816;28;20249;-91
2022/12/29 03:32:44;;;;;;;1.20;1.17;;;;;;;;;;5048447;28;20192;-92
2022/12/29 03:35:35;;;;;;;4.80;2.53;;;;;;;;;;5044131;28;20608;-93
2022/12/29 03:38:18;;;;;;;1.90;1.23;;;;;;;;;;5043059;28;20220;-92
2022/12/29 03:40:58;;;;;;;3.33;1.83;;;;;;;;;;5043589;28;20800;-90
2022/12/29 03:43:31;;;;;;;1.07;1.07;;;;;;;;;;5042621;28;20259;-92
2022/12/29 03:46:08;;;;;;;2.50;2.40;;;;;;;;;;5043951;28;20263;-90
2022/12/29 03:48:42;;;;;;;1.37;1.37;;;;;;;;;;5042383;28;20195;-92
2022/12/29 03:51:24;;;;;;;0.80;0.80;;;;;;;;;;5040299;28;20191;-92
2022/12/29 03:53:54;;;;;;;0.67;0.67;;;;;;;;;;5042186;28;20199;-92
2022/12/29 03:56:27;;;;;;;0.97;0.80;;;;;;;;;;5041013;28;20195;-91
2022/12/29 03:59:08;;;;;;;1.63;1.57;;;;;;;;;;5042359;28;20236;-91
2022/12/29 04:01:50;;;;;;;1.20;1.20;;;;;;;;;;5041171;28;20239;-91
2022/12/29 04:04:27;;;;;;;1.40;1.10;;;;;;;;;;5041113;28;20227;-92
2022/12/29 04:07:06;;;;;;;1.43;1.33;;;;;;;;;;5044303;28;20191;-91
2022/12/29 04:09:36;;;;;;;1.50;1.40;;;;;;;;;;5055996;28;20230;-92
2022/12/29 04:12:07;;;;;;;5.50;2.70;;;;;;;;;;5055722;28;20175;-93
2022/12/29 04:14:34;;;;;;;2.50;1.53;;;;;;;;;;5056538;28;20207;-91
2022/12/29 04:17:08;;;;;;;1.13;1.13;;;;;;;;;;5056648;28;20192;-90
2022/12/29 04:19:50;;;;;;;3.67;1.50;;;;;;;;;;5057639;28;20230;-92
2022/12/29 04:22:32;;;;;;;4.87;0.93;;;;;;;;;;5055408;28;20192;-93
2022/12/29 04:25:04;;;;;;;1.90;1.73;;;;;;;;;;5041273;28;20606;-92
2022/12/29 04:27:32;;;;;;;2.33;1.03;;;;;;;;;;5040846;28;20254;-92
2022/12/29 04:30:01;;;;;;;1.83;1.73;;;;;;;;;;5040589;28;20223;-94
2022/12/29 04:32:32;;;;;;;4.00;2.13;;;;;;;;;;5041015;28;20196;-93
2022/12/29 04:35:08;;;;;;;1.40;1.30;;;;;;;;;;5040426;28;20208;-93
2022/12/29 04:37:46;;;;;;;2.53;2.33;;;;;;;;;;5039993;28;20487;-93
2022/12/29 04:40:38;;;;;;;0.77;0.77;;;;;;;;;;5040500;28;20258;-92
2022/12/29 04:43:11;;;;;;;7.57;0.97;;;;;;;;;;5040637;28;20673;-93
2022/12/29 04:45:50;;;;;;;1.10;1.10;;;;;;;;;;5040628;28;20207;-93
2022/12/29 04:48:22;;;;;;;1.30;1.30;;;;;;;;;;5040926;28;20204;-91
2022/12/29 04:50:55;;;;;;;1.37;1.23;;;;;;;;;;5041430;28;20273;-92
2022/12/29 04:53:34;;;;;;;1.73;1.63;;;;;;;;;;5039579;28;20204;-90
2022/12/29 04:56:04;;;;;;;1.10;0.80;;;;;;;;;;5041197;28;20203;-92
2022/12/29 04:58:35;;;;;;;1.73;0.43;;;;;;;;;;5039927;28;20311;-92
2022/12/29 05:01:04;;;;;;;1.90;1.80;;;;;;;;;;5039825;28;20724;-91
2022/12/29 05:03:33;;;;;;;2.67;1.07;;;;;;;;;;5040401;28;20199;-92
2022/12/29 05:06:12;;;;;;;4.90;0.97;;;;;;;;;;5039974;28;20226;-91
2022/12/29 05:08:53;;;;;;;0.70;0.70;;;;;;;;;;5039903;28;20235;-92
2022/12/29 05:11:27;;;;;;;1.93;0.83;;;;;;;;;;5039499;28;20223;-92
2022/12/29 05:13:56;;;;;;;0.63;0.60;;;;;;;;;;5039729;28;20601;-90
2022/12/29 05:16:28;;;;;;;2.13;2.03;;;;;;;;;;5039626;28;20182;-91
2022/12/29 05:18:59;;;;;;;0.23;0.23;;;;;;;;;;5038973;28;20196;-92
2022/12/29 05:21:28;;;;;;;1.33;1.07;;;;;;;;;;5039336;28;20200;-92
2022/12/29 05:24:11;;;;;;;7.10;1.93;;;;;;;;;;5038704;28;20203;-91
2022/12/29 05:26:43;;;;;;;1.07;1.07;;;;;;;;;;5039145;28;20214;-94
2022/12/29 05:29:29;;;;;;;1.63;1.63;;;;;;;;;;5038777;28;20659;-92
2022/12/29 05:31:59;;;;;;;0.87;0.87;;;;;;;;;;5039553;28;20184;-92
2022/12/29 05:34:31;;;;;;;1.50;1.40;;;;;;;;;;5037594;28;20211;-91
2022/12/29 05:37:01;;;;;;;2.00;1.53;;;;;;;;;;5038811;28;20196;-92
2022/12/29 05:39:52;;;;;;;1.20;1.17;;;;;;;;;;5038811;28;20224;-92
2022/12/29 05:42:24;;;;;;;1.33;1.23;;;;;;;;;;5039025;28;20194;-90
2022/12/29 05:45:12;;;;;;;0.70;0.70;;;;;;;;;;5039480;28;20203;-91
2022/12/29 05:47:43;;;;;;;1.10;1.10;;;;;;;;;;5040464;28;20863;-92
2022/12/29 05:50:13;;;;;;;0.60;0.60;;;;;;;;;;5039633;28;20192;-91
2022/12/29 05:52:51;;;;;;;5.43;2.20;;;;;;;;;;5039340;28;20215;-91
2022/12/29 05:55:21;;;;;;;1.17;1.10;;;;;;;;;;5038453;28;20200;-91
2022/12/29 05:58:09;;;;;;;2.37;2.17;;;;;;;;;;5038782;28;20224;-94
2022/12/29 06:00:42;;;;;;;3.87;1.70;;;;;;;;;;5038274;28;20680;-90
2022/12/29 06:03:20;;;;;;;1.33;1.23;;;;;;;;;;5039773;28;20211;-90
2022/12/29 06:05:57;;;;;;;1.10;1.10;;;;;;;;;;5038739;28;20196;-91
2022/12/29 06:08:35;;;;;;;4.40;0.97;;;;;;;;;;5037142;28;20213;-92
2022/12/29 06:11:04;;;;;;;1.90;1.80;;;;;;;;;;5039009;28;20200;-92
2022/12/29 06:13:47;;;;;;;1.23;1.13;;;;;;;;;;5038038;28;20250;-93
2022/12/29 06:16:19;;;;;;;1.80;1.80;;;;;;;;;;5038930;28;20708;-93
2022/12/29 06:18:57;;;;;;;1.83;0.80;;;;;;;;;;5038137;28;20621;-92
2022/12/29 06:21:34;;;;;;;1.20;1.17;;;;;;;;;;5038283;28;20227;-92
2022/12/29 06:24:12;;;;;;;3.10;0.77;;;;;;;;;;5038288;28;20200;-92
2022/12/29 06:26:45;;;;;;;1.87;1.77;;;;;;;;;;5037399;28;20214;-90
2022/12/29 06:29:20;;;;;;;1.30;1.03;;;;;;;;;;5037893;28;20211;-91
2022/12/29 06:31:58;;;;;;;1.80;1.70;;;;;;;;;;5037541;28;20696;-93
2022/12/29 06:34:26;;;;;;;3.10;1.87;;;;;;;;;;5037544;28;20286;-91
2022/12/29 06:36:54;;;;;;;1.33;1.20;;;;;;;;;;5041529;28;20214;-91
2022/12/29 06:39:27;;;;;;;1.87;1.07;;;;;;;;;;5050470;28;20224;-90
2022/12/29 06:41:58;;;;;;;4.43;2.73;;;;;;;;;;5049998;28;20226;-90
2022/12/29 06:44:39;;;;;;;1.10;0.93;;;;;;;;;;5051646;28;20248;-88
2022/12/29 06:47:11;;;;;;;2.23;2.13;;;;;;;;;;5055304;28;20200;-92
2022/12/29 06:49:56;;;;;;;2.20;2.10;;;;;;;;;;5049585;28;20200;-92
2022/12/29 06:52:28;;;;;;;1.27;1.27;;;;;;;;;;5039795;28;20200;-91
2022/12/29 06:54:57;;;;;;;0.83;0.83;;;;;;;;;;5038472;28;20808;-92
2022/12/29 06:57:41;;;;;;;1.63;1.63;;;;;;;;;;5042119;28;20227;-90
2022/12/29 07:00:24;;;;;;;1.97;1.87;;;;;;;;;;5049134;28;20231;-92
2022/12/29 07:03:11;;;;;;;2.40;1.30;;;;;;;;;;5054471;28;20223;-92
2022/12/29 07:05:57;;;;;;;2.23;1.23;;;;;;;;;;5046121;28;20200;-93
2022/12/29 07:12:00;;;;;;;3.57;2.00;;;;;;;;;;5002758;28;20187;-93
2022/12/29 07:14:36;;;;;;;2.50;2.30;;;;;;;;;;5034016;28;20217;-93
2022/12/29 07:17:55;;;;;;;;;;;;;;;;;;;;;
2022/12/29 07:20:46;;;;;;;5.17;1.53;;;;;;;;;;5056713;28;20216;-90
2022/12/29 07:23:17;;;;;;;1.33;1.30;;;;;;;;;;5049998;28;20325;-92
2022/12/29 07:28:34;;;;;;;2.17;2.10;;;;;;;;;;5038086;28;20205;-93
2022/12/29 07:36:58;;;;;;;1.60;1.50;;;;;;;;;;5034865;28;20211;-93
2022/12/29 07:39:36;;;;;;;1.83;1.80;;;;;;;;;;5037990;28;20556;-93
2022/12/29 07:42:05;;;;;;;5.45;2.22;;;;;;;;;;5038606;28;20282;-90
2022/12/29 07:44:33;;;;;;;1.08;1.08;;;;;;;;;;5036193;28;20220;-92
2022/12/29 07:47:15;;;;;;;1.00;0.90;;;;;;;;;;5039621;28;20271;-91
2022/12/29 07:50:02;;;;;;;2.15;1.30;;;;;;;;;;5036410;28;20202;-92
2022/12/29 07:55:21;;;;;;;2.75;0.90;;;;;;;;;;5031416;28;20211;-93
2022/12/29 07:58:03;;;;;;;1.17;1.17;;;;;;;;;;5038136;28;20328;-93
2022/12/29 08:03:28;;;;;;;1.17;0.73;;;;;;;;;;5035613;28;20259;-91
2022/12/29 08:06:35;;;;;;;1.35;1.35;;;;;;;;;;5036563;28;20289;-90
2022/12/29 08:09:25;;;;;;;2.50;1.23;;;;;;;;;;5033880;28;20329;-93
2022/12/29 08:12:04;;;;;;;1.40;1.40;;;;;;;;;;5035265;28;20201;-94
2022/12/29 08:14:45;;;;;;;1.13;1.10;;;;;;;;;;5034457;28;20204;-91
2022/12/29 08:23:40;;;;;;;;;;;;;;;;;;;;;
2022/12/29 08:26:15;;;;;;;1.02;1.02;;;;;;;;;;5034744;28;20200;-92
2022/12/29 08:29:19;;;;;;;2.53;1.33;;;;;;;;;;5033452;28;20195;-94
2022/12/29 08:32:12;;;;;;;2.88;1.10;;;;;;;;;;5035923;28;20254;-93
2022/12/29 08:34:58;;;;;;;5.23;1.23;;;;;;;;;;5035987;28;20200;-92
2022/12/29 08:40:35;;;;;;;5.17;1.77;;;;;;;;;;5057883;22;20227;-93
2022/12/29 08:43:34;;;;;;;0.77;0.77;;;;;;;;;;5053473;28;20282;-94
2022/12/29 08:52:00;;;;;;;2.97;1.27;;;;;;;;;;5055017;28;20239;-92
2022/12/29 08:54:52;;;;;;;5.37;1.33;;;;;;;;;;5055231;28;20234;-93
2022/12/29 08:57:46;;;;;;;0.90;0.90;;;;;;;;;;5053814;28;20220;-94
2022/12/29 09:00:30;;;;;;;1.37;1.27;;;;;;;;;;5054939;28;20199;-93
2022/12/29 09:08:28;;;;;;;2.77;2.57;;;;;;;;;;5056573;28;20739;-92
2022/12/29 09:11:29;;;;;;;;;;;;;;;;;;;;;
2022/12/29 09:14:21;;;;;;;3.20;2.13;;;;;;;;;;5039715;28;20292;-94
2022/12/29 09:19:47;;;;;;;1.07;0.60;;;;;;;;;;5039925;28;20208;-94
2022/12/29 09:31:09;;;;;;;0.83;0.83;;;;;;;;;;5035796;28;20202;-94
2022/12/29 09:39:22;;;;;;;1.57;1.40;;;;;;;;;;5041636;28;20236;-92
2022/12/29 09:42:09;;;;;;;1.20;1.10;;;;;;;;;;5054899;28;20232;-91
2022/12/29 09:45:12;;;;;;;2.40;1.97;;;;;;;;;;5040870;28;20203;-92
2022/12/29 09:47:58;;;;;;;1.00;0.97;;;;;;;;;;5032508;28;20289;-94
2022/12/29 09:50:32;;;;;;;0.83;0.70;;;;;;;;;;5038821;28;20198;-93
2022/12/29 09:59:13;;;;;;;1.10;1.10;;;;;;;;;;5053236;28;20225;-90
2022/12/29 10:02:07;;;;;;;;;;;;;;;;;;;;;
2022/12/29 10:08:09;;;;;;;1.20;1.20;;;;;;;;;;5017255;28;20229;-93
2022/12/29 10:22:29;;;;;;;1.67;1.57;;;;;;;;;;5030291;28;20221;-92
2022/12/29 10:25:11;;;;;;;2.13;1.50;;;;;;;;;;5050212;28;20200;-92
2022/12/29 10:27:42;;;;;;;1.27;1.27;;;;;;;;;;5039507;28;20207;-91
2022/12/29 10:38:43;;;;;;;3.17;0.93;;;;;;;;;;5036138;28;20202;-94
2022/12/29 10:41:45;;;;;;;1.80;1.70;;;;;;;;;;5036250;28;20229;-94
2022/12/29 10:44:34;;;;;;;2.37;1.07;;;;;;;;;;5036792;28;20288;-91
2022/12/29 10:50:06;;;;;;;3.23;1.40;;;;;;;;;;5035102;28;20215;-92
2022/12/29 10:55:37;;;;;;;3.73;1.20;;;;;;;;;;5048259;28;20226;-93
2022/12/29 10:58:23;;;;;;;1.27;1.23;;;;;;;;;;5048806;28;20206;-93
2022/12/29 11:01:04;;;;;;;3.63;2.33;;;;;;;;;;5053237;28;20215;-91
2022/12/29 11:03:54;;;;;;;6.13;2.77;;;;;;;;;;5055518;28;20257;-91
2022/12/29 11:06:39;;;;;;;3.20;1.37;;;;;;;;;;5042078;28;20248;-93
2022/12/29 11:09:27;;;;;;;1.83;1.70;;;;;;;;;;5037776;28;20226;-92
2022/12/29 11:12:27;;;;;;;3.73;1.70;;;;;;;;;;5037302;28;20192;-92
2022/12/29 11:15:26;;;;;;;2.43;2.33;;;;;;;;;;5037607;28;20554;-90
2022/12/29 11:34:52;;;;;;;2.10;0.97;;;;;;;;;;5092327;28;20865;-92
2022/12/29 11:40:31;;;;;;;0.80;0.80;;;;;;;;;;5089845;28;20216;-92
2022/12/29 11:43:29;;;;;;;2.90;1.37;;;;;;;;;;5093574;28;20671;-92
2022/12/29 11:48:53;;;;;;;1.70;1.70;;;;;;;;;;5093661;28;20200;-92
2022/12/29 11:51:42;;;;;;;1.33;0.90;;;;;;;;;;5092861;28;20678;-91
2022/12/29 11:54:18;;;;;;;2.03;1.93;;;;;;;;;;5093879;28;20246;-93
2022/12/29 12:00:14;;;;;;;0.87;0.87;;;;;;;;;;5011213;28;20210;-93
2022/12/29 12:03:09;;;;;;;2.50;2.23;;;;;;;;;;5089676;28;20228;-92
2022/12/29 12:05:53;;;;;;;1.03;1.03;;;;;;;;;;5093035;28;20212;-91
2022/12/29 12:11:33;;;;;;;2.03;1.33;;;;;;;;;;5092054;28;20692;-90
2022/12/29 12:14:17;;;;;;;;;;;;;;;;;;;;;
2022/12/29 12:16:51;;;;;;;3.63;2.37;;;;;;;;;;5096794;28;20194;-93
2022/12/29 12:19:37;;;;;;;0.73;0.73;;;;;;;;;;5104262;28;20177;-91
2022/12/29 12:37:38;;;;;;;5.20;2.23;;;;;;;;;;5070105;28;20200;-93
2022/12/29 12:40:39;;;;;;;6.47;1.90;;;;;;;;;;5079757;28;20203;-92
2022/12/29 12:43:34;;;;;;;0.97;0.80;;;;;;;;;;5036689;28;20228;-91
2022/12/29 12:49:18;;;;;;;1.77;1.47;;;;;;;;;;5078816;28;20202;-92
2022/12/29 12:52:13;;;;;;;1.07;1.07;;;;;;;;;;5080493;28;20677;-93
2022/12/29 12:55:13;;;;;;;1.53;1.53;;;;;;;;;;5085663;28;20258;-92
2022/12/29 12:58:00;;;;;;;2.07;1.13;;;;;;;;;;5097168;28;20210;-92
2022/12/29 13:10:20;;;;;;;;;;;;;;;;;;;;;
2022/12/29 13:13:17;;;;;;;;;;;;;;;;;;;;;
2022/12/29 13:28:00;;;;;;;1.70;1.37;;;;;;;;;;5133234;22;20288;-92
2022/12/29 13:50:56;;;;;;;2.43;1.53;;;;;;;;;;5077330;28;20203;-93
2022/12/29 13:59:58;;;;;;;;;;;;;;;;;;;;;
2022/12/29 14:02:42;;;;;;;0.70;0.63;;;;;;;;;;5077260;28;20310;-91
2022/12/29 14:08:22;;;;;;;5.93;1.73;;;;;;;;;;5061000;28;20205;-90
2022/12/29 14:13:57;;;;;;;3.27;1.60;;;;;;;;;;5048128;28;20227;-94
2022/12/29 14:16:52;;;;;;;2.20;1.07;;;;;;;;;;5056035;28;20199;-92
2022/12/29 14:19:27;;;;;;;2.00;0.57;;;;;;;;;;5055857;28;20210;-94
2022/12/29 14:22:11;;;;;;;1.70;0.93;;;;;;;;;;5055908;28;20210;-94
2022/12/29 14:28:04;;;;;;;1.70;1.50;;;;;;;;;;5055252;28;20238;-92
2022/12/29 14:31:03;;;;;;;3.27;1.47;;;;;;;;;;5054778;28;20247;-92
2022/12/29 14:33:36;;;;;;;1.23;1.00;;;;;;;;;;5054425;28;20209;-93
2022/12/29 14:36:28;;;;;;;1.17;1.17;;;;;;;;;;5054282;28;20197;-93
2022/12/29 14:39:02;;;;;;;0.47;0.47;;;;;;;;;;5055302;28;20204;-91
2022/12/29 14:41:40;;;;;;;1.83;1.80;;;;;;;;;;5055673;28;20262;-93
2022/12/29 14:44:35;;;;;;;3.60;2.83;;;;;;;;;;5055592;28;20237;-91
2022/12/29 14:47:12;;;;;;;1.30;1.23;;;;;;;;;;5056554;28;20194;-93
2022/12/29 14:49:46;;;;;;;2.17;1.53;;;;;;;;;;5056603;28;20288;-93
2022/12/29 14:52:25;;;;;;;1.03;1.03;;;;;;;;;;5059508;28;20196;-94
2022/12/29 14:55:00;;;;;;;2.97;2.73;;;;;;;;;;5061670;28;20208;-93
2022/12/29 14:57:33;;;;;;;1.67;1.57;;;;;;;;;;5069540;28;20203;-92
2022/12/29 15:00:21;;;;;;;0.93;0.93;;;;;;;;;;5068905;28;20182;-91
2022/12/29 15:03:10;;;;;;;1.23;1.20;;;;;;;;;;5055125;28;20227;-92
2022/12/29 15:05:43;;;;;;;2.33;2.13;;;;;;;;;;5059093;28;20642;-95
2022/12/29 15:08:18;;;;;;;6.33;3.23;;;;;;;;;;5067731;28;20202;-94
2022/12/29 15:10:52;;;;;;;2.30;2.07;;;;;;;;;;5070423;28;20202;-93
2022/12/29 15:13:23;;;;;;;4.20;3.67;;;;;;;;;;5072892;28;20187;-92
2022/12/29 15:16:09;;;;;;;4.33;3.93;;;;;;;;;;5074091;28;20171;-90
2022/12/29 15:18:44;;;;;;;4.43;2.03;;;;;;;;;;5062722;28;20207;-91
2022/12/29 15:21:25;;;;;;;2.97;2.77;;;;;;;;;;5056100;28;20283;-92
2022/12/29 15:24:01;;;;;;;2.80;2.53;;;;;;;;;;5056115;28;20223;-92
2022/12/29 15:26:45;;;;;;;2.33;2.13;;;;;;;;;;5055070;28;20252;-94
2022/12/29 15:32:19;;;;;;;6.93;3.03;;;;;;;;;;5053227;28;20700;-92
2022/12/29 15:35:01;;;;;;;3.13;2.77;;;;;;;;;;5054185;28;20199;-93
2022/12/29 15:37:30;;;;;;;8.90;4.07;;;;;;;;;;5055619;28;20203;-92
2022/12/29 15:40:14;;;;;;;2.77;2.60;;;;;;;;;;5054903;28;20230;-92
2022/12/29 15:43:01;;;;;;;2.50;2.40;;;;;;;;;;5054644;28;20234;-93
2022/12/29 15:45:32;;;;;;;5.60;3.93;;;;;;;;;;5055569;28;20214;-92
2022/12/29 15:48:18;;;;;;;9.57;2.90;;;;;;;;;;5054773;28;20607;-92
2022/12/29 15:51:15;;;;;;;8.27;4.70;;;;;;;;;;5055932;28;20199;-92
2022/12/29 15:54:00;;;;;;;3.83;3.53;;;;;;;;;;5063252;28;20199;-91
2022/12/29 15:56:44;;;;;;;5.40;2.73;;;;;;;;;;5075782;28;20184;-92
2022/12/29 15:59:26;;;;;;;4.90;2.63;;;;;;;;;;5075281;28;20175;-91
2022/12/29 16:02:06;;;;;;;8.60;4.90;;;;;;;;;;5071760;28;20253;-91
2022/12/29 16:04:54;;;;;;;9.50;2.73;;;;;;;;;;5058066;28;20223;-91
2022/12/29 16:07:38;;;;;;;4.47;2.47;;;;;;;;;;5054854;28;20249;-93
2022/12/29 16:10:21;;;;;;;4.27;1.80;;;;;;;;;;5057597;28;20245;-93
2022/12/29 16:15:48;;;;;;;3.20;2.97;;;;;;;;;;5052583;28;20777;-94
2022/12/29 16:18:23;;;;;;;3.27;2.50;;;;;;;;;;5058232;28;20207;-93
2022/12/29 16:21:15;;;;;;;;;;;;;;;;;;;;;
2022/12/29 16:24:02;;;;;;;3.93;3.27;;;;;;;;;;5058151;28;20223;-92
2022/12/29 16:29:38;;;;;;;1.10;1.07;;;;;;;;;;5075070;28;20322;-94
2022/12/29 16:35:30;;;;;;;2.77;2.57;;;;;;;;;;5024578;28;20195;-92
2022/12/29 16:38:36;;;;;;;8.17;3.03;;;;;;;;;;5057986;28;20256;-93
2022/12/29 16:41:46;;;;;;;;;;;;;;;;;;;;;
2022/12/29 16:47:39;;;;;;;9.50;3.80;;;;;;;;;;5055016;28;20221;-93
2022/12/29 16:50:25;;;;;;;1.80;1.73;;;;;;;;;;5058945;28;20648;-91
2022/12/29 17:07:41;;;;;;;6.23;2.73;;;;;;;;;;5097236;23;20231;-93
2022/12/29 17:13:12;;;;;;;5.20;4.00;;;;;;;;;;5017090;28;20192;-93
2022/12/29 17:16:06;;;;;;;7.23;4.23;;;;;;;;;;5021685;28;20211;-93
2022/12/29 17:21:52;;;;;;;5.17;3.80;;;;;;;;;;5067151;23;20184;-92
2022/12/29 17:27:57;;;;;;;1.83;1.77;;;;;;;;;;5042487;28;20214;-93
2022/12/29 17:45:37;;;;;;;8.10;5.00;;;;;;;;;;4948163;28;20234;-92
2022/12/29 17:51:12;;;;;;;2.70;2.50;;;;;;;;;;5042334;28;20535;-93
2022/12/29 17:56:58;;;;;;;1.97;1.87;;;;;;;;;;5044039;28;20204;-94
2022/12/29 18:05:43;;;;;;;2.47;2.00;;;;;;;;;;5040348;28;20203;-92
2022/12/29 18:11:25;;;;;;;3.03;2.87;;;;;;;;;;5018451;28;20232;-95
2022/12/29 18:14:27;;;;;;;4.20;2.97;;;;;;;;;;5020939;28;20787;-91
2022/12/29 18:23:27;;;;;;;3.07;2.80;;;;;;;;;;5030342;28;20303;-91
2022/12/29 18:26:36;;;;;;;3.87;2.77;;;;;;;;;;5021124;28;20271;-93
2022/12/29 18:29:27;;;;;;;2.60;2.37;;;;;;;;;;5019804;28;20256;-93
2022/12/29 18:32:22;;;;;;;2.93;2.23;;;;;;;;;;5020630;28;20323;-94
2022/12/29 18:34:54;;;;;;;6.90;3.73;;;;;;;;;;5018306;28;20220;-93
2022/12/29 18:37:36;;;;;;;6.40;4.00;;;;;;;;;;5019049;28;20217;-94
2022/12/29 18:40:19;;;;;;;3.23;2.93;;;;;;;;;;5019952;28;20271;-92
2022/12/29 18:42:57;;;;;;;6.27;3.07;;;;;;;;;;5018929;28;20296;-92
2022/12/29 18:46:05;;;;;;;;;;;;;;;;;;;;;
2022/12/29 18:48:49;;;;;;;5.23;4.03;;;;;;;;;;5018691;28;20573;-92
2022/12/29 18:51:46;;;;;;;;;;;;;;;;;;;;;
2022/12/29 18:54:58;;;;;;;;;;;;;;;;;;;;;
2022/12/29 19:06:42;;;;;;;1.90;1.80;;;;;;;;;;5031243;28;20239;-92
2022/12/29 19:09:43;;;;;;;4.20;3.33;;;;;;;;;;5023596;28;20224;-92
2022/12/29 19:12:32;;;;;;;5.93;3.33;;;;;;;;;;5021415;28;20231;-93
2022/12/29 19:15:09;;;;;;;5.00;3.60;;;;;;;;;;5018198;28;20205;-92
2022/12/29 19:17:50;;;;;;;5.10;4.60;;;;;;;;;;5016909;28;20207;-93
2022/12/29 19:20:51;;;;;;;4.20;3.00;;;;;;;;;;5017814;28;20243;-91
2022/12/29 19:23:35;;;;;;;3.70;3.20;;;;;;;;;;5020147;28;20299;-90
2022/12/29 19:26:43;;;;;;;2.90;2.67;;;;;;;;;;5031341;28;20196;-93
2022/12/29 19:38:57;;;;;;;3.30;3.10;;;;;;;;;;5132794;22;20321;-90
2022/12/29 20:06:07;;;;;;;3.03;2.83;;;;;;;;;;5001982;28;20245;-91
2022/12/29 20:12:22;;;;;;;7.27;4.87;;;;;;;;;;5127900;23;20287;-91
2022/12/29 20:15:25;;;;;;;5.10;2.70;;;;;;;;;;5093997;28;20210;-92
2022/12/29 20:21:17;;;;;;;4.40;3.17;;;;;;;;;;5079425;28;20213;-90
2022/12/29 20:30:24;;;;;;;10.20;4.17;;;;;;;;;;5084374;28;20245;-92
2022/12/29 20:38:46;;;;;;;5.83;5.27;;;;;;;;;;5094857;28;20214;-93
2022/12/29 20:42:07;;;;;;;5.47;3.77;;;;;;;;;;5084689;28;20218;-91
2022/12/29 20:54:43;;;;;;;3.53;2.93;;;;;;;;;;5049118;28;20265;-93
2022/12/29 20:57:36;;;;;;;5.10;2.87;;;;;;;;;;5057260;28;20223;-92
2022/12/29 21:00:49;;;;;;;;;;;;;;;;;;;;;
2022/12/29 21:16:02;;;;;;;2.50;2.40;;;;;;;;;;5100416;28;20218;-93
2022/12/29 21:18:46;;;;;;;13.90;3.47;;;;;;;;;;5102019;28;20218;-93
2022/12/29 21:27:31;;;;;;;3.80;3.53;;;;;;;;;;5290702;23;21901;-92
2022/12/29 21:30:24;;;;;;;3.63;3.30;;;;;;;;;;5242647;23;20220;-92
2022/12/29 21:35:46;;;;;;;5.53;2.63;;;;;;;;;;5033128;28;20227;-93
2022/12/29 21:50:12;;;;;;;5.67;4.13;;;;;;;;;;5008317;28;20236;-92
2022/12/29 21:52:58;;;;;;;9.33;4.67;;;;;;;;;;5021441;28;20232;-93
2022/12/29 21:55:36;;;;;;;2.50;2.23;;;;;;;;;;5037531;28;20243;-93
2022/12/29 22:15:30;;;;;;;8.03;4.93;;;;;;;;;;4997546;28;20232;-94
2022/12/29 22:18:01;;;;;;;7.97;4.83;;;;;;;;;;4998474;28;20229;-94
2022/12/29 22:20:36;;;;;;;2.87;2.67;;;;;;;;;;4999026;28;20228;-93
2022/12/29 22:23:05;;;;;;;7.63;3.10;;;;;;;;;;4999409;28;20294;-93
2022/12/29 22:25:47;;;;;;;4.30;2.50;;;;;;;;;;4998763;28;20324;-93
2022/12/29 22:31:31;;;;;;;6.80;3.83;;;;;;;;;;4993242;28;20640;-91
2022/12/29 22:34:09;;;;;;;5.43;2.93;;;;;;;;;;4999786;28;20664;-93
2022/12/29 22:39:32;;;;;;;2.60;2.50;;;;;;;;;;4997170;28;20221;-92
2022/12/29 22:42:18;;;;;;;12.40;3.53;;;;;;;;;;4997557;28;20225;-93
2022/12/29 22:44:49;;;;;;;5.60;3.97;;;;;;;;;;4996204;28;20323;-92
2022/12/29 22:47:25;;;;;;;7.20;4.80;;;;;;;;;;4980388;28;20229;-94
2022/12/29 22:50:01;;;;;;;6.77;3.63;;;;;;;;;;4995673;28;20232;-91
2022/12/29 22:53:09;;;;;;;2.43;2.33;;;;;;;;;;5011531;28;20636;-93
2022/12/29 22:55:54;;;;;;;6.37;3.60;;;;;;;;;;5016124;28;20312;-93
2022/12/29 22:58:36;;;;;;;4.60;3.03;;;;;;;;;;5015381;28;20232;-91
2022/12/29 23:01:05;;;;;;;6.00;3.90;;;;;;;;;;5016286;28;20235;-94
2022/12/29 23:03:39;;;;;;;6.60;3.87;;;;;;;;;;5016380;28;20252;-93
2022/12/29 23:06:09;;;;;;;2.73;2.43;;;;;;;;;;5015907;28;20263;-92
2022/12/29 23:08:59;;;;;;;14.00;2.60;;;;;;;;;;5022076;28;20244;-92
2022/12/29 23:11:40;;;;;;;6.53;4.27;;;;;;;;;;5016065;28;20224;-94
2022/12/29 23:20:10;;;;;;;3.67;2.80;;;;;;;;;;4960702;28;20228;-92
2022/12/29 23:22:40;;;;;;;1.37;1.27;;;;;;;;;;5014218;28;20775;-92
2022/12/29 23:25:14;;;;;;;4.37;2.67;;;;;;;;;;5013872;28;20236;-90
2022/12/29 23:27:53;;;;;;;3.07;2.07;;;;;;;;;;5014913;28;20248;-94
2022/12/29 23:30:43;;;;;;;1.93;1.53;;;;;;;;;;5018463;28;20243;-93
2022/12/29 23:33:26;;;;;;;6.00;4.33;;;;;;;;;;5015113;28;20225;-93
2022/12/29 23:35:59;;;;;;;2.97;2.77;;;;;;;;;;5017740;28;20241;-92
2022/12/29 23:38:29;;;;;;;3.13;2.83;;;;;;;;;;5016638;28;20286;-92
2022/12/29 23:41:12;;;;;;;6.33;2.10;;;;;;;;;;5018621;28;20220;-94
2022/12/29 23:46:53;;;;;;;3.80;2.63;;;;;;;;;;4999390;28;20240;-92
2022/12/29 23:49:36;;;;;;;7.23;3.97;;;;;;;;;;5017428;28;20252;-91
2022/12/29 23:52:07;;;;;;;5.93;2.60;;;;;;;;;;5017153;28;20217;-93
2022/12/29 23:54:41;;;;;;;3.40;3.13;;;;;;;;;;5015971;28;20319;-91
2022/12/29 23:57:10;;;;;;;5.70;2.93;;;;;;;;;;5015812;28;20221;-92